createdAt,value
2023-05-15T00:01:31.724Z,102026.19
2023-05-15T00:03:59.584Z,102028.78
2023-05-15T00:06:28.135Z,102018.13
2023-05-15T00:08:56.056Z,102026.97
2023-05-15T00:11:23.903Z,102031.63
2023-05-15T00:13:52.301Z,102027.50
2023-05-15T00:16:21.583Z,102024.31
2023-05-15T00:18:49.545Z,102041.47
2023-05-15T00:21:17.755Z,102038.16
2023-05-15T00:23:47.502Z,102037.50
2023-05-15T00:26:15.797Z,102035.88
2023-05-15T00:28:43.674Z,102038.69
2023-05-15T00:31:13.131Z,102047.69
2023-05-15T00:33:42.530Z,102047.94
2023-05-15T00:36:10.755Z,102044.53
2023-05-15T00:38:38.631Z,102047.28
2023-05-15T00:41:06.755Z,102051.00
2023-05-15T00:43:34.609Z,102050.34
2023-05-15T00:46:02.453Z,102039.81
2023-05-15T00:48:30.319Z,102050.38
2023-05-15T00:51:00.341Z,102049.59
2023-05-15T00:53:28.346Z,102055.91
2023-05-15T00:55:57.158Z,102059.56
2023-05-15T00:58:25.148Z,102059.56
2023-05-15T01:00:54.372Z,102060.44
2023-05-15T01:03:22.324Z,102064.84
2023-05-15T01:05:50.267Z,102061.28
2023-05-15T01:08:21.929Z,102060.50
2023-05-15T01:10:49.993Z,102063.31
2023-05-15T01:13:17.874Z,102063.50
2023-05-15T01:15:45.741Z,102066.38
2023-05-15T01:18:13.713Z,102061.03
2023-05-15T01:21:03.188Z,102067.09
2023-05-15T01:23:39.910Z,102047.75
2023-05-15T01:26:34.058Z,102057.19
2023-05-15T01:29:06.070Z,102062.63
2023-05-15T01:31:33.969Z,102053.09
2023-05-15T01:34:04.194Z,102053.03
2023-05-15T01:36:35.802Z,102058.16
2023-05-15T01:39:04.450Z,102069.75
2023-05-15T01:41:36.326Z,102076.13
2023-05-15T01:44:07.003Z,102072.78
2023-05-15T01:46:35.922Z,102075.66
2023-05-15T01:49:03.809Z,102066.13
2023-05-15T01:51:31.849Z,102075.84
2023-05-15T01:53:59.994Z,102077.66
2023-05-15T01:56:28.234Z,102084.81
2023-05-15T01:58:56.365Z,102093.09
2023-05-15T02:01:25.811Z,102086.91
2023-05-15T02:03:53.725Z,102086.78
2023-05-15T02:06:21.725Z,102087.66
2023-05-15T02:08:49.693Z,102089.41
2023-05-15T02:11:17.563Z,102085.06
2023-05-15T02:13:45.434Z,102082.31
2023-05-15T02:16:13.384Z,102072.59
2023-05-15T02:18:42.925Z,102078.91
2023-05-15T02:21:10.869Z,102081.75
2023-05-15T02:23:39.282Z,102078.44
2023-05-15T02:26:13.544Z,102082.38
2023-05-15T02:28:46.285Z,102086.16
2023-05-15T02:31:15.661Z,102091.94
2023-05-15T02:33:48.445Z,102083.31
2023-05-15T02:36:19.316Z,102096.94
2023-05-15T02:38:49.415Z,102092.69
2023-05-15T02:41:17.385Z,102103.69
2023-05-15T02:43:45.361Z,102102.91
2023-05-15T02:46:13.294Z,102098.53
2023-05-15T02:48:41.377Z,102109.47
2023-05-15T02:51:11.479Z,102109.63
2023-05-15T02:53:40.619Z,102118.75
2023-05-15T02:56:08.587Z,102120.72
2023-05-15T02:58:36.472Z,102123.63
2023-05-15T03:01:04.617Z,102133.53
2023-05-15T03:03:32.654Z,102131.06
2023-05-15T03:06:01.526Z,102133.91
2023-05-15T03:08:30.822Z,102134.06
2023-05-15T03:10:58.987Z,102136.00
2023-05-15T03:13:26.920Z,102138.00
2023-05-15T03:15:54.805Z,102136.41
2023-05-15T03:18:22.951Z,102147.19
2023-05-15T03:20:52.668Z,102146.44
2023-05-15T03:23:20.821Z,102142.06
2023-05-15T03:25:50.100Z,102152.91
2023-05-15T03:28:17.979Z,102152.97
2023-05-15T03:30:45.921Z,102152.16
2023-05-15T03:33:13.813Z,102155.81
2023-05-15T03:35:41.654Z,102159.34
2023-05-15T03:38:09.534Z,102154.09
2023-05-15T03:40:39.408Z,102161.19
2023-05-15T03:43:08.786Z,102169.34
2023-05-15T03:45:37.166Z,102172.13
2023-05-15T03:48:05.442Z,102183.75
2023-05-15T03:50:33.795Z,102177.50
2023-05-15T03:53:01.666Z,102184.66
2023-05-15T03:55:29.504Z,102177.66
2023-05-15T03:57:58.539Z,102177.72
2023-05-15T04:00:27.850Z,102181.34
2023-05-15T04:02:55.921Z,102176.16
2023-05-15T04:05:24.187Z,102184.09
2023-05-15T04:07:52.233Z,102188.59
2023-05-15T04:10:20.328Z,102191.28
2023-05-15T04:12:48.513Z,102189.59
2023-05-15T04:15:17.472Z,102193.13
2023-05-15T04:17:46.951Z,102194.97
2023-05-15T04:20:15.442Z,102193.22
2023-05-15T04:22:43.492Z,102195.03
2023-05-15T04:25:11.801Z,102196.84
2023-05-15T04:27:39.696Z,102195.06
2023-05-15T04:30:08.982Z,102196.88
2023-05-15T04:32:37.526Z,102145.38
2023-05-15T04:35:10.185Z,102205.84
2023-05-15T04:37:38.257Z,102200.53
2023-05-15T04:40:08.063Z,102204.09
2023-05-15T04:42:37.730Z,102199.72
2023-05-15T04:45:08.086Z,102209.53
2023-05-15T04:47:36.085Z,102203.34
2023-05-15T04:50:04.090Z,102214.81
2023-05-15T04:52:33.340Z,102212.97
2023-05-15T04:55:01.263Z,102208.56
2023-05-15T04:57:29.172Z,102209.44
2023-05-15T04:59:58.071Z,102206.75
2023-05-15T05:02:25.976Z,102220.16
2023-05-15T05:04:53.837Z,102213.06
2023-05-15T05:07:21.741Z,102209.69
2023-05-15T05:09:51.264Z,102216.66
2023-05-15T05:12:21.998Z,102220.22
2023-05-15T05:14:52.961Z,102220.22
2023-05-15T05:17:20.849Z,102158.97
2023-05-15T05:19:48.743Z,102226.41
2023-05-15T05:22:16.592Z,102211.47
2023-05-15T05:24:44.471Z,102228.13
2023-05-15T05:27:13.801Z,102223.59
2023-05-15T05:29:41.737Z,102229.63
2023-05-15T05:32:09.598Z,102226.00
2023-05-15T05:34:37.923Z,102231.13
2023-05-15T05:37:06.267Z,102235.38
2023-05-15T05:39:34.113Z,102246.72
2023-05-15T05:42:02.029Z,102243.09
2023-05-15T05:44:31.224Z,102246.50
2023-05-15T05:46:59.085Z,102242.81
2023-05-15T05:49:27.025Z,102244.47
2023-05-15T05:51:54.901Z,102251.41
2023-05-15T05:54:22.781Z,102242.31
2023-05-15T05:56:50.637Z,102235.09
2023-05-15T05:59:18.516Z,102241.97
2023-05-15T06:01:49.221Z,102247.03
2023-05-15T06:05:06.932Z,102247.53
2023-05-15T06:07:37.091Z,102245.44
2023-05-15T06:10:07.834Z,102255.97
2023-05-15T06:12:37.707Z,102252.94
2023-05-15T06:15:08.154Z,102246.47
2023-05-15T06:17:38.567Z,102255.97
2023-05-15T06:20:10.268Z,102247.88
2023-05-15T06:22:40.053Z,102259.44
2023-05-15T06:25:13.984Z,102273.78
2023-05-15T06:27:42.803Z,102265.88
2023-05-15T06:30:15.751Z,102269.31
2023-05-15T06:32:46.805Z,102262.00
2023-05-15T06:35:15.399Z,102265.38
2023-05-15T06:37:44.145Z,102275.19
2023-05-15T06:40:13.409Z,102270.97
2023-05-15T06:42:42.473Z,102258.00
2023-05-15T06:45:11.827Z,102280.63
2023-05-15T06:47:40.680Z,102275.00
2023-05-15T06:50:12.205Z,102274.88
2023-05-15T06:52:41.098Z,102280.06
2023-05-15T06:55:10.525Z,102280.78
2023-05-15T06:57:39.624Z,102295.00
2023-05-15T07:00:10.397Z,102293.13
2023-05-15T07:02:39.178Z,102300.00
2023-05-15T07:05:09.120Z,102293.44
2023-05-15T07:07:39.339Z,102294.84
2023-05-15T07:10:10.270Z,102298.97
2023-05-15T07:12:38.829Z,102298.31
2023-05-15T07:15:08.243Z,102300.84
2023-05-15T07:17:36.910Z,102289.97
2023-05-15T07:20:07.332Z,102299.75
2023-05-15T07:22:44.520Z,102294.41
2023-05-15T07:25:18.505Z,102301.13
2023-05-15T07:27:47.345Z,102304.28
2023-05-15T07:30:16.837Z,102308.03
2023-05-15T07:32:45.442Z,102317.66
2023-05-15T07:35:14.346Z,102315.91
2023-05-15T07:37:43.044Z,102315.81
2023-05-15T07:40:12.400Z,102316.22
2023-05-15T07:42:44.034Z,102320.88
2023-05-15T07:45:12.928Z,102321.69
2023-05-15T07:47:46.668Z,102324.72
2023-05-15T07:50:15.304Z,102325.88
2023-05-15T07:52:44.102Z,102322.19
2023-05-15T07:55:12.854Z,102327.56
2023-05-15T07:57:42.946Z,102332.72
2023-05-15T08:00:13.170Z,102320.56
2023-05-15T08:02:42.751Z,102322.50
2023-05-15T08:05:11.753Z,102321.34
2023-05-15T08:07:40.561Z,102324.81
2023-05-15T08:10:10.847Z,102312.88
2023-05-15T08:12:46.474Z,102332.78
2023-05-15T08:15:17.000Z,102338.28
2023-05-15T08:17:46.150Z,102333.72
2023-05-15T08:20:15.315Z,102338.59
2023-05-15T08:22:44.565Z,102330.75
2023-05-15T08:25:13.395Z,102332.22
2023-05-15T08:27:42.172Z,102341.38
2023-05-15T08:30:12.039Z,102337.03
2023-05-15T08:32:42.693Z,102342.94
2023-05-15T08:35:10.675Z,102345.09
2023-05-15T08:37:38.585Z,102351.69
2023-05-15T08:40:08.132Z,102353.78
2023-05-15T08:42:39.494Z,102331.47
2023-05-15T08:45:09.519Z,102353.09
2023-05-15T08:47:41.501Z,102353.69
2023-05-15T08:50:12.215Z,102355.09
2023-05-15T08:52:41.698Z,102354.53
2023-05-15T08:55:10.200Z,102358.03
2023-05-15T08:57:38.364Z,102362.81
2023-05-15T09:00:09.320Z,102350.53
2023-05-15T09:02:37.850Z,102366.06
2023-05-15T09:05:08.524Z,102351.00
2023-05-15T09:07:37.089Z,102361.69
2023-05-15T09:10:05.916Z,102367.16
2023-05-15T09:12:34.871Z,102362.13
2023-05-15T09:15:12.829Z,102363.13
2023-05-15T09:17:40.811Z,102365.25
2023-05-15T09:20:25.891Z,102367.06
2023-05-15T09:22:54.024Z,102349.66
2023-05-15T09:25:34.422Z,102371.25
2023-05-15T09:28:02.591Z,102348.97
2023-05-15T09:30:31.188Z,102365.84
2023-05-15T09:33:01.324Z,102361.19
2023-05-15T09:35:40.666Z,102373.34
2023-05-15T09:38:10.309Z,102373.63
2023-05-15T09:40:38.241Z,102367.72
2023-05-15T09:43:06.275Z,102357.63
2023-05-15T09:45:34.887Z,102370.13
2023-05-15T09:48:05.683Z,102366.97
2023-05-15T09:50:34.899Z,102374.81
2023-05-15T09:53:04.218Z,102360.00
2023-05-15T09:55:33.033Z,102365.84
2023-05-15T09:58:07.885Z,102365.69
2023-05-15T10:00:36.205Z,102365.97
2023-05-15T10:03:17.203Z,102379.59
2023-05-15T10:05:45.275Z,102378.16
2023-05-15T10:08:16.413Z,102377.25
2023-05-15T10:10:44.705Z,102359.34
2023-05-15T10:13:12.620Z,102364.03
2023-05-15T10:15:40.713Z,102367.03
2023-05-15T10:18:08.856Z,102362.56
2023-05-15T10:20:36.931Z,102363.63
2023-05-15T10:23:05.831Z,102358.22
2023-05-15T10:25:39.596Z,102371.59
2023-05-15T10:28:08.867Z,102374.09
2023-05-15T10:30:37.227Z,102368.53
2023-05-15T10:33:05.657Z,102369.78
2023-05-15T10:35:33.751Z,102374.84
2023-05-15T10:38:01.829Z,102379.34
2023-05-15T10:40:29.793Z,102373.97
2023-05-15T10:42:59.065Z,102372.44
2023-05-15T10:45:27.214Z,102380.16
2023-05-15T10:47:55.092Z,102380.16
2023-05-15T10:50:23.258Z,102383.06
2023-05-15T10:52:52.050Z,102382.63
2023-05-15T10:55:19.979Z,102385.66
2023-05-15T10:57:48.302Z,102393.09
2023-05-15T11:00:32.524Z,102383.34
2023-05-15T11:03:01.249Z,102392.88
2023-05-15T11:05:31.116Z,102395.50
2023-05-15T11:08:29.880Z,102401.25
2023-05-15T11:10:57.964Z,102406.16
2023-05-15T11:13:26.685Z,102351.03
2023-05-15T11:15:57.315Z,102389.88
2023-05-15T11:18:25.198Z,102395.03
2023-05-15T11:21:11.462Z,102389.34
2023-05-15T11:23:40.729Z,102388.22
2023-05-15T11:26:08.609Z,102387.91
2023-05-15T11:28:42.754Z,102380.78
2023-05-15T11:31:12.162Z,102379.91
2023-05-15T11:33:40.815Z,102392.16
2023-05-15T11:36:08.857Z,102399.56
2023-05-15T11:38:40.197Z,102383.53
2023-05-15T11:41:18.708Z,102375.94
2023-05-15T11:43:47.089Z,102378.53
2023-05-15T11:46:16.480Z,102374.03
2023-05-15T11:48:47.761Z,102376.50
2023-05-15T11:51:17.839Z,102379.97
2023-05-15T11:53:45.810Z,102384.50
2023-05-15T11:56:19.421Z,102387.47
2023-05-15T11:58:49.710Z,102375.06
2023-05-15T12:01:19.122Z,102379.47
2023-05-15T12:03:48.463Z,102376.09
2023-05-15T12:06:16.594Z,102379.38
2023-05-15T12:08:45.382Z,102383.13
2023-05-15T12:11:13.555Z,102380.72
2023-05-15T12:16:09.139Z,102395.81
2023-05-15T12:18:38.879Z,102388.31
2023-05-15T12:21:07.002Z,102378.16
2023-05-15T12:23:34.923Z,102379.72
2023-05-15T12:26:03.587Z,102390.72
2023-05-15T12:28:35.139Z,102390.56
2023-05-15T12:31:04.195Z,102361.41
2023-05-15T12:33:32.352Z,102390.28
2023-05-15T12:36:02.047Z,102394.13
2023-05-15T12:38:30.595Z,102381.34
2023-05-15T12:40:58.766Z,102393.94
2023-05-15T12:43:26.744Z,102385.59
2023-05-15T12:45:55.092Z,102379.56
2023-05-15T12:48:23.098Z,102386.31
2023-05-15T12:50:51.675Z,102379.00
2023-05-15T12:53:22.584Z,102393.25
2023-05-15T12:55:50.475Z,102391.63
2023-05-15T12:58:19.201Z,102390.31
2023-05-15T13:00:49.846Z,102389.19
2023-05-15T13:03:21.120Z,102402.34
2023-05-15T13:05:49.157Z,102397.38
2023-05-15T13:08:17.909Z,102395.38
2023-05-15T13:10:47.925Z,102381.50
2023-05-15T13:13:16.055Z,102389.75
2023-05-15T13:15:44.748Z,102386.25
2023-05-15T13:18:13.380Z,102386.50
2023-05-15T13:20:42.347Z,102386.28
2023-05-15T13:23:10.940Z,102393.97
2023-05-15T13:25:38.812Z,102395.19
2023-05-15T13:28:08.442Z,102395.78
2023-05-15T13:30:36.369Z,102394.00
2023-05-15T13:33:04.974Z,102388.06
2023-05-15T13:35:36.926Z,102387.53
2023-05-15T13:38:05.423Z,102382.31
2023-05-15T13:40:35.484Z,102388.38
2023-05-15T13:43:03.359Z,102398.75
2023-05-15T13:45:33.181Z,102392.72
2023-05-15T13:48:01.482Z,102398.84
2023-05-15T13:50:29.535Z,102385.50
2023-05-15T13:52:57.468Z,102402.56
2023-05-15T13:55:26.292Z,102400.94
2023-05-15T13:57:54.364Z,102393.81
2023-05-15T14:00:23.150Z,102410.63
2023-05-15T14:02:52.488Z,102404.00
2023-05-15T14:05:20.912Z,102397.59
2023-05-15T14:07:48.967Z,102407.03
2023-05-15T14:10:17.288Z,102388.56
2023-05-15T14:12:46.626Z,102392.66
2023-05-15T14:15:14.570Z,102402.84
2023-05-15T14:17:47.339Z,102399.25
2023-05-15T14:20:17.219Z,102396.06
2023-05-15T14:22:45.230Z,102393.19
2023-05-15T14:25:13.601Z,102398.63
2023-05-15T14:27:41.503Z,102386.66
2023-05-15T14:30:10.575Z,102395.06
2023-05-15T14:32:38.459Z,102398.09
2023-05-15T14:35:06.738Z,102395.34
2023-05-15T14:37:36.150Z,102398.56
2023-05-15T14:40:04.969Z,102393.75
2023-05-15T14:42:33.036Z,102396.69
2023-05-15T14:45:01.158Z,102398.44
2023-05-15T14:47:30.031Z,102394.50
2023-05-15T14:49:57.936Z,102392.22
2023-05-15T14:52:25.883Z,102387.38
2023-05-15T14:55:07.755Z,102395.78
2023-05-15T14:57:36.955Z,102385.38
2023-05-15T15:00:06.094Z,102396.50
2023-05-15T15:02:34.293Z,102386.13
2023-05-15T15:05:02.283Z,102392.47
2023-05-15T15:07:30.437Z,102406.31
2023-05-15T15:09:59.680Z,102395.19
2023-05-15T15:12:27.978Z,102400.16
2023-05-15T15:14:55.945Z,102402.66
2023-05-15T15:17:24.203Z,102405.09
2023-05-15T15:19:52.484Z,102414.13
2023-05-15T15:22:20.798Z,102418.56
2023-05-15T15:24:48.848Z,102409.16
2023-05-15T15:27:18.694Z,102420.97
2023-05-15T15:29:46.917Z,102412.28
2023-05-15T15:32:15.015Z,102418.00
2023-05-15T15:34:42.948Z,102417.41
2023-05-15T15:37:11.527Z,102412.09
2023-05-15T15:39:39.532Z,102417.69
2023-05-15T15:42:07.671Z,102409.63
2023-05-15T15:44:37.342Z,102411.06
2023-05-15T15:47:05.831Z,102412.59
2023-05-15T15:49:34.112Z,102409.06
2023-05-15T15:52:02.605Z,102422.03
2023-05-15T15:54:31.229Z,102406.19
2023-05-15T15:56:59.320Z,102414.38
2023-05-15T15:59:27.245Z,102414.94
2023-05-15T16:01:56.490Z,102408.28
2023-05-15T16:04:24.580Z,102415.78
2023-05-15T16:06:52.496Z,102407.06
2023-05-15T16:09:20.330Z,102407.53
2023-05-15T16:11:48.310Z,102413.97
2023-05-15T16:14:16.310Z,102422.94
2023-05-15T16:16:44.298Z,102421.03
2023-05-15T16:19:14.086Z,102421.69
2023-05-15T16:21:42.072Z,102421.38
2023-05-15T16:24:10.254Z,102419.84
2023-05-15T16:26:38.531Z,102419.13
2023-05-15T16:29:06.996Z,102417.13
2023-05-15T16:31:34.865Z,102417.53
2023-05-15T16:34:03.812Z,102420.78
2023-05-15T16:36:33.284Z,102411.66
2023-05-15T16:39:01.594Z,102414.25
2023-05-15T16:41:30.149Z,102415.75
2023-05-15T16:43:58.098Z,102413.47
2023-05-15T16:46:26.327Z,102418.53
2023-05-15T16:48:54.452Z,102423.59
2023-05-15T16:51:22.759Z,102421.03
2023-05-15T16:53:56.452Z,102415.22
2023-05-15T16:56:24.403Z,102431.19
2023-05-15T16:58:53.027Z,102417.00
2023-05-15T17:01:21.713Z,102421.91
2023-05-15T17:03:49.883Z,102414.56
2023-05-15T17:06:17.808Z,102419.06
2023-05-15T17:08:46.289Z,102413.78
2023-05-15T17:11:15.535Z,102421.88
2023-05-15T17:13:43.414Z,102431.00
2023-05-15T17:16:11.421Z,102428.47
2023-05-15T17:18:40.342Z,102427.16
2023-05-15T17:21:08.286Z,102424.38
2023-05-15T17:23:36.422Z,102419.75
2023-05-15T17:26:04.356Z,102424.13
2023-05-15T17:28:35.882Z,102433.59
2023-05-15T17:31:09.583Z,102425.31
2023-05-15T17:33:37.483Z,102437.06
2023-05-15T17:36:05.866Z,102431.75
2023-05-15T17:38:33.894Z,102442.53
2023-05-15T17:41:01.807Z,102441.78
2023-05-15T17:43:29.720Z,102440.38
2023-05-15T17:46:00.544Z,102439.47
2023-05-15T17:48:28.595Z,102438.09
2023-05-15T17:50:56.746Z,102442.31
2023-05-15T17:53:24.642Z,102445.25
2023-05-15T17:55:53.113Z,102441.84
2023-05-15T17:58:21.914Z,102441.44
2023-05-15T18:00:49.855Z,102443.59
2023-05-15T18:03:19.137Z,102443.25
2023-05-15T18:05:47.536Z,102438.91
2023-05-15T18:08:15.520Z,102444.03
2023-05-15T18:10:43.865Z,102444.63
2023-05-15T18:13:11.804Z,102434.94
2023-05-15T18:15:40.304Z,102441.72
2023-05-15T18:18:08.345Z,102452.88
2023-05-15T18:20:38.027Z,102439.13
2023-05-15T18:23:06.440Z,102441.72
2023-05-15T18:25:39.706Z,102444.22
2023-05-15T18:28:07.786Z,102450.28
2023-05-15T18:30:35.935Z,102450.53
2023-05-15T18:33:03.870Z,102456.56
2023-05-15T18:35:31.994Z,102458.38
2023-05-15T18:38:01.316Z,102464.53
2023-05-15T18:40:29.287Z,102469.59
2023-05-15T18:42:57.254Z,102472.56
2023-05-15T18:45:29.605Z,102440.34
2023-05-15T18:47:57.610Z,102465.47
2023-05-15T18:50:26.030Z,102465.94
2023-05-15T18:52:54.439Z,102460.19
2023-05-15T18:55:24.056Z,102464.13
2023-05-15T18:57:52.050Z,102466.25
2023-05-15T19:00:33.905Z,102473.81
2023-05-15T19:03:07.179Z,102463.66
2023-05-15T19:05:35.250Z,102467.75
2023-05-15T19:08:04.298Z,102468.13
2023-05-15T19:10:33.840Z,102471.22
2023-05-15T19:13:01.749Z,102476.91
2023-05-15T19:15:29.634Z,102484.47
2023-05-15T19:17:57.559Z,102476.56
2023-05-15T19:20:26.104Z,102478.56
2023-05-15T19:22:54.073Z,102495.00
2023-05-15T19:25:22.172Z,102497.28
2023-05-15T19:27:51.441Z,102495.03
2023-05-15T19:30:19.991Z,102473.63
2023-05-15T19:32:48.375Z,102483.59
2023-05-15T19:35:16.536Z,102489.94
2023-05-15T19:37:44.377Z,102490.19
2023-05-15T19:40:13.197Z,102497.50
2023-05-15T19:42:41.118Z,102492.44
2023-05-15T19:45:11.546Z,102498.78
2023-05-15T19:47:39.470Z,102486.69
2023-05-15T19:50:08.719Z,102499.16
2023-05-15T19:52:36.599Z,102494.84
2023-05-15T19:55:04.796Z,102499.50
2023-05-15T19:57:32.720Z,102501.50
2023-05-15T20:00:00.700Z,102501.72
2023-05-15T20:02:30.058Z,102506.34
2023-05-15T20:04:57.998Z,102505.78
2023-05-15T20:07:25.836Z,102506.94
2023-05-15T20:09:53.662Z,102512.44
2023-05-15T20:12:22.522Z,102520.66
2023-05-15T20:14:50.375Z,102510.13
2023-05-15T20:17:18.437Z,102514.59
2023-05-15T20:19:48.092Z,102511.28
2023-05-15T20:22:15.965Z,102525.66
2023-05-15T20:24:44.294Z,102522.09
2023-05-15T20:27:12.406Z,102531.03
2023-05-15T20:29:40.463Z,102528.38
2023-05-15T20:32:08.572Z,102538.25
2023-05-15T20:34:36.905Z,102533.06
2023-05-15T20:37:06.384Z,102542.97
2023-05-15T20:39:34.326Z,102546.69
2023-05-15T20:42:02.266Z,102546.84
2023-05-15T20:44:30.580Z,102540.81
2023-05-15T20:46:58.462Z,102548.94
2023-05-15T20:49:27.102Z,102547.28
2023-05-15T20:51:55.050Z,102553.72
2023-05-15T20:54:24.344Z,102551.34
2023-05-15T20:56:52.314Z,102550.56
2023-05-15T20:59:20.188Z,102557.06
2023-05-15T21:01:48.112Z,102550.06
2023-05-15T21:04:16.183Z,102559.97
2023-05-15T21:06:44.086Z,102556.59
2023-05-15T21:09:12.005Z,102548.72
2023-05-15T21:11:41.232Z,102547.19
2023-05-15T21:14:09.103Z,102550.06
2023-05-15T21:16:37.076Z,102528.38
2023-05-15T21:19:05.080Z,102548.59
2023-05-15T21:21:33.025Z,102555.81
2023-05-15T21:24:02.178Z,102557.72
2023-05-15T21:26:30.121Z,102555.16
2023-05-15T21:28:59.549Z,102559.69
2023-05-15T21:31:27.671Z,102558.88
2023-05-15T21:33:55.916Z,102556.22
2023-05-15T21:36:23.944Z,102557.25
2023-05-15T21:38:51.807Z,102549.34
2023-05-15T21:41:19.650Z,102559.28
2023-05-15T21:43:47.508Z,102562.91
2023-05-15T21:46:16.790Z,102560.28
2023-05-15T21:48:44.683Z,102554.06
2023-05-15T21:51:12.576Z,102558.59
2023-05-15T21:53:40.472Z,102559.59
2023-05-15T21:56:08.973Z,102564.13
2023-05-15T21:58:36.833Z,102556.94
2023-05-15T22:01:04.686Z,102571.22
2023-05-15T22:03:34.132Z,102566.81
2023-05-15T22:06:02.151Z,102572.16
2023-05-15T22:08:30.107Z,102572.16
2023-05-15T22:10:58.653Z,102569.47
2023-05-15T22:13:26.594Z,102565.91
2023-05-15T22:15:54.558Z,102574.81
2023-05-15T22:18:23.212Z,102568.53
2023-05-15T22:20:52.447Z,102572.09
2023-05-15T22:23:20.390Z,102573.06
2023-05-15T22:25:49.077Z,102581.16
2023-05-15T22:28:17.013Z,102582.09
2023-05-15T22:30:44.885Z,102583.00
2023-05-15T22:33:12.811Z,102577.66
2023-05-15T22:35:41.148Z,102577.69
2023-05-15T22:38:10.414Z,102575.91
2023-05-15T22:40:38.301Z,102582.16
2023-05-15T22:43:06.179Z,102536.66
2023-05-15T22:45:34.122Z,102588.31
2023-05-15T22:48:02.401Z,102590.16
2023-05-15T22:50:30.443Z,102590.25
2023-05-15T22:52:58.327Z,102597.44
2023-05-15T22:55:27.670Z,102600.09
2023-05-15T22:57:55.599Z,102601.84
2023-05-15T23:00:23.526Z,102601.00
2023-05-15T23:02:55.264Z,102597.44
2023-05-15T23:05:24.869Z,102594.88
2023-05-15T23:08:47.960Z,102588.84
2023-05-15T23:11:17.265Z,102586.47
2023-05-15T23:13:45.169Z,102593.72
2023-05-15T23:16:13.124Z,102592.91
2023-05-15T23:18:41.085Z,102597.41
2023-05-15T23:21:09.005Z,102602.75
2023-05-15T23:23:36.899Z,102602.81
2023-05-15T23:26:04.823Z,102593.91
2023-05-15T23:28:34.081Z,102599.25
2023-05-15T23:31:01.981Z,102600.09
2023-05-15T23:33:29.874Z,102606.28
2023-05-15T23:35:57.717Z,102600.09
2023-05-15T23:38:25.700Z,102599.25
2023-05-15T23:40:53.658Z,102601.06
2023-05-15T23:43:22.089Z,102601.13
2023-05-15T23:45:51.310Z,102594.94
2023-05-15T23:48:19.213Z,102604.75
2023-05-15T23:50:47.091Z,102606.59
2023-05-15T23:53:14.952Z,102591.50
2023-05-15T23:55:42.854Z,102602.13
2023-05-15T23:58:10.727Z,102602.13
